sensor_id;sensor_type;location;lat;lon;timestamp;temperature;humidity
14349;DHT22;7258;50.376;8.742;2023-05-10T00:01:21;14.30;99.90
14349;DHT22;7258;50.376;8.742;2023-05-10T00:03:25;14.30;99.90
14349;DHT22;7258;50.376;8.742;2023-05-10T00:05:28;14.20;99.90
14349;DHT22;7258;50.376;8.742;2023-05-10T00:07:31;14.00;99.90
14349;DHT22;7258;50.376;8.742;2023-05-10T00:09:34;14.00;99.90
14349;DHT22;7258;50.376;8.742;2023-05-10T00:11:38;13.90;99.90
14349;DHT22;7258;50.376;8.742;2023-05-10T00:14:07;13.80;99.90
14349;DHT22;7258;50.376;8.742;2023-05-10T00:16:18;13.80;99.90
14349;DHT22;7258;50.376;8.742;2023-05-10T00:18:21;13.70;99.90
14349;DHT22;7258;50.376;8.742;2023-05-10T00:20:25;13.70;99.90
14349;DHT22;7258;50.376;8.742;2023-05-10T00:22:29;13.70;99.90
14349;DHT22;7258;50.376;8.742;2023-05-10T00:24:34;13.60;99.90
14349;DHT22;7258;50.376;8.742;2023-05-10T00:26:40;13.60;99.90
14349;DHT22;7258;50.376;8.742;2023-05-10T00:28:44;13.60;99.90
14349;DHT22;7258;50.376;8.742;2023-05-10T00:30:47;13.50;99.90
14349;DHT22;7258;50.376;8.742;2023-05-10T00:32:53;13.50;99.90
14349;DHT22;7258;50.376;8.742;2023-05-10T00:34:56;13.50;99.90
14349;DHT22;7258;50.376;8.742;2023-05-10T00:37:01;13.50;99.90
14349;DHT22;7258;50.376;8.742;2023-05-10T00:39:04;13.50;99.90
14349;DHT22;7258;50.376;8.742;2023-05-10T00:41:07;13.40;99.90
14349;DHT22;7258;50.376;8.742;2023-05-10T00:43:10;13.40;99.90
14349;DHT22;7258;50.376;8.742;2023-05-10T00:45:17;13.40;99.90
14349;DHT22;7258;50.376;8.742;2023-05-10T00:47:21;13.40;99.90
14349;DHT22;7258;50.376;8.742;2023-05-10T00:49:24;13.30;99.90
14349;DHT22;7258;50.376;8.742;2023-05-10T00:51:27;13.30;99.90
14349;DHT22;7258;50.376;8.742;2023-05-10T00:53:32;13.30;99.90
14349;DHT22;7258;50.376;8.742;2023-05-10T00:55:37;13.30;99.90
14349;DHT22;7258;50.376;8.742;2023-05-10T00:57:40;13.20;99.90
14349;DHT22;7258;50.376;8.742;2023-05-10T00:59:43;13.20;99.90
14349;DHT22;7258;50.376;8.742;2023-05-10T01:01:46;13.20;99.90
14349;DHT22;7258;50.376;8.742;2023-05-10T01:03:50;13.10;99.90
14349;DHT22;7258;50.376;8.742;2023-05-10T01:05:53;13.20;99.90
14349;DHT22;7258;50.376;8.742;2023-05-10T01:07:56;13.10;99.90
14349;DHT22;7258;50.376;8.742;2023-05-10T01:10:00;13.10;99.90
14349;DHT22;7258;50.376;8.742;2023-05-10T01:12:05;13.10;99.90
14349;DHT22;7258;50.376;8.742;2023-05-10T01:14:09;13.10;99.90
14349;DHT22;7258;50.376;8.742;2023-05-10T01:16:13;13.00;99.90
14349;DHT22;7258;50.376;8.742;2023-05-10T01:18:19;13.10;99.90
14349;DHT22;7258;50.376;8.742;2023-05-10T01:20:23;13.00;99.90
14349;DHT22;7258;50.376;8.742;2023-05-10T01:25:17;13.00;99.90
14349;DHT22;7258;50.376;8.742;2023-05-10T01:30:25;13.00;99.90
14349;DHT22;7258;50.376;8.742;2023-05-10T01:32:36;13.00;99.90
14349;DHT22;7258;50.376;8.742;2023-05-10T01:34:47;12.90;99.90
14349;DHT22;7258;50.376;8.742;2023-05-10T01:36:58;12.90;99.90
14349;DHT22;7258;50.376;8.742;2023-05-10T01:39:14;12.90;99.90
14349;DHT22;7258;50.376;8.742;2023-05-10T01:41:22;12.90;99.90
14349;DHT22;7258;50.376;8.742;2023-05-10T01:43:30;12.90;99.90
14349;DHT22;7258;50.376;8.742;2023-05-10T01:45:41;12.90;99.90
14349;DHT22;7258;50.376;8.742;2023-05-10T01:47:57;12.90;99.90
14349;DHT22;7258;50.376;8.742;2023-05-10T01:50:03;12.90;99.90
14349;DHT22;7258;50.376;8.742;2023-05-10T01:52:12;12.90;99.90
14349;DHT22;7258;50.376;8.742;2023-05-10T01:54:19;12.80;99.90
14349;DHT22;7258;50.376;8.742;2023-05-10T01:56:28;12.90;99.90
14349;DHT22;7258;50.376;8.742;2023-05-10T01:58:33;12.90;99.90
14349;DHT22;7258;50.376;8.742;2023-05-10T02:00:40;12.80;99.90
14349;DHT22;7258;50.376;8.742;2023-05-10T02:02:46;12.90;99.90
14349;DHT22;7258;50.376;8.742;2023-05-10T02:04:54;12.80;99.90
14349;DHT22;7258;50.376;8.742;2023-05-10T02:07:02;12.80;99.90
14349;DHT22;7258;50.376;8.742;2023-05-10T02:09:06;12.80;99.90
14349;DHT22;7258;50.376;8.742;2023-05-10T02:11:12;12.80;99.90
14349;DHT22;7258;50.376;8.742;2023-05-10T02:13:16;12.80;99.90
14349;DHT22;7258;50.376;8.742;2023-05-10T02:15:23;12.80;99.90
14349;DHT22;7258;50.376;8.742;2023-05-10T02:17:27;12.80;99.90
14349;DHT22;7258;50.376;8.742;2023-05-10T02:19:32;12.80;99.90
14349;DHT22;7258;50.376;8.742;2023-05-10T02:21:39;12.80;99.90
14349;DHT22;7258;50.376;8.742;2023-05-10T02:23:48;12.80;99.90
14349;DHT22;7258;50.376;8.742;2023-05-10T02:25:54;12.80;99.90
14349;DHT22;7258;50.376;8.742;2023-05-10T02:28:01;12.80;99.90
14349;DHT22;7258;50.376;8.742;2023-05-10T02:30:06;12.80;99.90
14349;DHT22;7258;50.376;8.742;2023-05-10T02:32:10;12.80;99.90
14349;DHT22;7258;50.376;8.742;2023-05-10T02:34:13;12.70;99.90
14349;DHT22;7258;50.376;8.742;2023-05-10T02:36:17;12.70;99.90
14349;DHT22;7258;50.376;8.742;2023-05-10T02:38:24;12.70;99.90
14349;DHT22;7258;50.376;8.742;2023-05-10T02:40:28;12.70;99.90
14349;DHT22;7258;50.376;8.742;2023-05-10T02:42:35;12.70;99.90
14349;DHT22;7258;50.376;8.742;2023-05-10T02:44:41;12.70;99.90
14349;DHT22;7258;50.376;8.742;2023-05-10T02:46:44;12.70;99.90
14349;DHT22;7258;50.376;8.742;2023-05-10T02:48:48;12.70;99.90
14349;DHT22;7258;50.376;8.742;2023-05-10T02:50:52;12.70;99.90
14349;DHT22;7258;50.376;8.742;2023-05-10T02:53:01;12.70;99.90
14349;DHT22;7258;50.376;8.742;2023-05-10T02:55:09;12.70;99.90
14349;DHT22;7258;50.376;8.742;2023-05-10T02:57:16;12.70;99.90
14349;DHT22;7258;50.376;8.742;2023-05-10T02:59:20;12.70;99.90
14349;DHT22;7258;50.376;8.742;2023-05-10T03:01:23;12.70;99.90
14349;DHT22;7258;50.376;8.742;2023-05-10T03:03:27;12.70;99.90
14349;DHT22;7258;50.376;8.742;2023-05-10T03:05:29;12.70;99.90
14349;DHT22;7258;50.376;8.742;2023-05-10T03:07:34;12.70;99.90
14349;DHT22;7258;50.376;8.742;2023-05-10T03:09:38;12.70;99.90
14349;DHT22;7258;50.376;8.742;2023-05-10T03:11:51;12.70;99.90
14349;DHT22;7258;50.376;8.742;2023-05-10T03:14:08;12.70;99.90
14349;DHT22;7258;50.376;8.742;2023-05-10T03:16:15;12.70;99.90
14349;DHT22;7258;50.376;8.742;2023-05-10T03:18:22;12.70;99.90
14349;DHT22;7258;50.376;8.742;2023-05-10T03:20:29;12.70;99.90
14349;DHT22;7258;50.376;8.742;2023-05-10T03:22:37;12.70;99.90
14349;DHT22;7258;50.376;8.742;2023-05-10T03:24:42;12.70;99.90
14349;DHT22;7258;50.376;8.742;2023-05-10T03:26:47;12.70;99.90
14349;DHT22;7258;50.376;8.742;2023-05-10T03:28:52;12.70;99.90
14349;DHT22;7258;50.376;8.742;2023-05-10T03:30:56;12.70;99.90
14349;DHT22;7258;50.376;8.742;2023-05-10T03:33:05;12.70;99.90
14349;DHT22;7258;50.376;8.742;2023-05-10T03:35:09;12.70;99.90
14349;DHT22;7258;50.376;8.742;2023-05-10T03:37:12;12.70;99.90
14349;DHT22;7258;50.376;8.742;2023-05-10T03:39:15;12.70;99.90
14349;DHT22;7258;50.376;8.742;2023-05-10T03:41:18;12.70;99.90
14349;DHT22;7258;50.376;8.742;2023-05-10T03:43:23;12.60;99.90
14349;DHT22;7258;50.376;8.742;2023-05-10T03:45:28;12.60;99.90
14349;DHT22;7258;50.376;8.742;2023-05-10T03:47:32;12.60;99.90
14349;DHT22;7258;50.376;8.742;2023-05-10T03:49:35;12.60;99.90
14349;DHT22;7258;50.376;8.742;2023-05-10T03:51:38;12.60;99.90
14349;DHT22;7258;50.376;8.742;2023-05-10T03:53:41;12.50;99.90
14349;DHT22;7258;50.376;8.742;2023-05-10T03:55:44;12.50;99.90
14349;DHT22;7258;50.376;8.742;2023-05-10T03:57:47;12.50;99.90
14349;DHT22;7258;50.376;8.742;2023-05-10T03:59:52;12.50;99.90
14349;DHT22;7258;50.376;8.742;2023-05-10T04:01:55;12.60;99.90
14349;DHT22;7258;50.376;8.742;2023-05-10T04:03:58;12.60;99.90
14349;DHT22;7258;50.376;8.742;2023-05-10T04:06:02;12.60;99.90
14349;DHT22;7258;50.376;8.742;2023-05-10T04:08:05;12.60;99.90
14349;DHT22;7258;50.376;8.742;2023-05-10T04:10:09;12.60;99.90
14349;DHT22;7258;50.376;8.742;2023-05-10T04:12:12;12.60;99.90
14349;DHT22;7258;50.376;8.742;2023-05-10T04:14:15;12.60;99.90
14349;DHT22;7258;50.376;8.742;2023-05-10T04:16:19;12.60;99.90
14349;DHT22;7258;50.376;8.742;2023-05-10T04:18:22;12.60;99.90
14349;DHT22;7258;50.376;8.742;2023-05-10T04:20:28;12.60;99.90
14349;DHT22;7258;50.376;8.742;2023-05-10T04:22:32;12.60;99.90
14349;DHT22;7258;50.376;8.742;2023-05-10T04:24:34;12.60;99.90
14349;DHT22;7258;50.376;8.742;2023-05-10T04:26:37;12.60;99.90
14349;DHT22;7258;50.376;8.742;2023-05-10T04:28:40;12.60;99.90
14349;DHT22;7258;50.376;8.742;2023-05-10T04:30:43;12.60;99.90
14349;DHT22;7258;50.376;8.742;2023-05-10T04:32:48;12.70;99.90
14349;DHT22;7258;50.376;8.742;2023-05-10T04:34:52;12.70;99.90
14349;DHT22;7258;50.376;8.742;2023-05-10T04:36:55;12.70;99.90
14349;DHT22;7258;50.376;8.742;2023-05-10T04:38:58;12.80;99.90
14349;DHT22;7258;50.376;8.742;2023-05-10T04:41:05;12.80;99.90
14349;DHT22;7258;50.376;8.742;2023-05-10T04:43:08;12.90;99.90
14349;DHT22;7258;50.376;8.742;2023-05-10T04:45:11;12.90;99.90
14349;DHT22;7258;50.376;8.742;2023-05-10T04:47:16;12.90;99.90
14349;DHT22;7258;50.376;8.742;2023-05-10T04:49:20;12.90;99.90
14349;DHT22;7258;50.376;8.742;2023-05-10T04:51:23;13.00;99.90
14349;DHT22;7258;50.376;8.742;2023-05-10T04:53:26;13.00;99.90
14349;DHT22;7258;50.376;8.742;2023-05-10T04:55:29;13.00;99.90
14349;DHT22;7258;50.376;8.742;2023-05-10T04:57:34;13.00;99.90
14349;DHT22;7258;50.376;8.742;2023-05-10T04:59:37;13.00;99.90
14349;DHT22;7258;50.376;8.742;2023-05-10T05:01:40;13.00;99.90
14349;DHT22;7258;50.376;8.742;2023-05-10T05:03:43;13.00;99.90
14349;DHT22;7258;50.376;8.742;2023-05-10T05:05:48;13.10;99.90
14349;DHT22;7258;50.376;8.742;2023-05-10T05:07:50;13.10;99.90
14349;DHT22;7258;50.376;8.742;2023-05-10T05:09:53;13.10;99.90
14349;DHT22;7258;50.376;8.742;2023-05-10T05:11:56;13.10;99.90
14349;DHT22;7258;50.376;8.742;2023-05-10T05:13:59;13.20;99.90
14349;DHT22;7258;50.376;8.742;2023-05-10T05:16:03;13.20;99.90
14349;DHT22;7258;50.376;8.742;2023-05-10T05:18:06;13.20;99.90
14349;DHT22;7258;50.376;8.742;2023-05-10T05:20:10;13.20;99.90
14349;DHT22;7258;50.376;8.742;2023-05-10T05:22:14;13.10;99.90
14349;DHT22;7258;50.376;8.742;2023-05-10T05:24:20;13.20;99.90
14349;DHT22;7258;50.376;8.742;2023-05-10T05:26:23;13.10;99.90
14349;DHT22;7258;50.376;8.742;2023-05-10T05:28:26;13.00;99.90
14349;DHT22;7258;50.376;8.742;2023-05-10T05:30:34;12.90;99.90
14349;DHT22;7258;50.376;8.742;2023-05-10T05:32:37;12.90;99.90
14349;DHT22;7258;50.376;8.742;2023-05-10T05:34:40;12.90;99.90
14349;DHT22;7258;50.376;8.742;2023-05-10T05:36:43;13.00;99.90
14349;DHT22;7258;50.376;8.742;2023-05-10T05:38:47;13.00;99.90
14349;DHT22;7258;50.376;8.742;2023-05-10T05:40:50;13.00;99.90
14349;DHT22;7258;50.376;8.742;2023-05-10T05:42:54;13.00;99.90
14349;DHT22;7258;50.376;8.742;2023-05-10T05:44:56;13.10;99.90
14349;DHT22;7258;50.376;8.742;2023-05-10T05:46:59;13.00;99.90
14349;DHT22;7258;50.376;8.742;2023-05-10T05:49:02;13.10;99.90
14349;DHT22;7258;50.376;8.742;2023-05-10T05:51:05;13.20;99.90
14349;DHT22;7258;50.376;8.742;2023-05-10T05:53:12;13.20;99.90
14349;DHT22;7258;50.376;8.742;2023-05-10T05:55:16;13.10;99.90
14349;DHT22;7258;50.376;8.742;2023-05-10T05:57:20;13.10;99.90
14349;DHT22;7258;50.376;8.742;2023-05-10T05:59:23;13.10;99.90
14349;DHT22;7258;50.376;8.742;2023-05-10T06:01:26;13.10;99.90
14349;DHT22;7258;50.376;8.742;2023-05-10T06:03:29;13.00;99.90
14349;DHT22;7258;50.376;8.742;2023-05-10T06:05:32;13.00;99.90
14349;DHT22;7258;50.376;8.742;2023-05-10T06:07:35;13.10;99.90
14349;DHT22;7258;50.376;8.742;2023-05-10T06:09:38;13.10;99.90
14349;DHT22;7258;50.376;8.742;2023-05-10T06:11:42;13.20;99.90
14349;DHT22;7258;50.376;8.742;2023-05-10T06:13:45;13.20;99.90
14349;DHT22;7258;50.376;8.742;2023-05-10T06:15:48;13.30;99.90
14349;DHT22;7258;50.376;8.742;2023-05-10T06:17:52;13.30;99.90
14349;DHT22;7258;50.376;8.742;2023-05-10T06:19:55;13.40;99.90
14349;DHT22;7258;50.376;8.742;2023-05-10T06:21:58;13.50;99.90
14349;DHT22;7258;50.376;8.742;2023-05-10T06:24:01;13.60;99.90
14349;DHT22;7258;50.376;8.742;2023-05-10T06:26:04;13.70;99.90
14349;DHT22;7258;50.376;8.742;2023-05-10T06:28:08;13.80;99.90
14349;DHT22;7258;50.376;8.742;2023-05-10T06:30:12;13.90;99.90
14349;DHT22;7258;50.376;8.742;2023-05-10T06:32:16;13.90;99.90
14349;DHT22;7258;50.376;8.742;2023-05-10T06:34:19;13.90;99.90
14349;DHT22;7258;50.376;8.742;2023-05-10T06:36:22;13.90;99.90
14349;DHT22;7258;50.376;8.742;2023-05-10T06:38:26;14.00;99.90
14349;DHT22;7258;50.376;8.742;2023-05-10T06:40:29;14.10;99.90
14349;DHT22;7258;50.376;8.742;2023-05-10T06:42:32;14.20;99.90
14349;DHT22;7258;50.376;8.742;2023-05-10T06:44:36;14.20;99.90
14349;DHT22;7258;50.376;8.742;2023-05-10T06:46:39;14.30;99.90
14349;DHT22;7258;50.376;8.742;2023-05-10T06:48:43;14.30;99.90
14349;DHT22;7258;50.376;8.742;2023-05-10T06:50:46;14.40;99.90
14349;DHT22;7258;50.376;8.742;2023-05-10T06:52:49;14.60;99.90
14349;DHT22;7258;50.376;8.742;2023-05-10T06:54:53;14.70;99.90
14349;DHT22;7258;50.376;8.742;2023-05-10T06:56:56;14.80;99.90
14349;DHT22;7258;50.376;8.742;2023-05-10T06:58:59;14.90;99.90
14349;DHT22;7258;50.376;8.742;2023-05-10T07:01:04;14.90;99.90
14349;DHT22;7258;50.376;8.742;2023-05-10T07:03:07;14.90;99.90
14349;DHT22;7258;50.376;8.742;2023-05-10T07:05:13;15.00;99.90
14349;DHT22;7258;50.376;8.742;2023-05-10T07:07:16;15.00;99.90
14349;DHT22;7258;50.376;8.742;2023-05-10T07:09:19;15.10;99.90
14349;DHT22;7258;50.376;8.742;2023-05-10T07:11:22;15.10;99.90
14349;DHT22;7258;50.376;8.742;2023-05-10T07:13:25;15.20;99.90
14349;DHT22;7258;50.376;8.742;2023-05-10T07:15:28;15.40;99.90
14349;DHT22;7258;50.376;8.742;2023-05-10T07:17:32;15.50;99.90
14349;DHT22;7258;50.376;8.742;2023-05-10T07:19:35;15.60;99.90
14349;DHT22;7258;50.376;8.742;2023-05-10T07:21:38;15.70;99.90
14349;DHT22;7258;50.376;8.742;2023-05-10T07:23:41;15.80;99.90
14349;DHT22;7258;50.376;8.742;2023-05-10T07:25:46;15.80;99.90
14349;DHT22;7258;50.376;8.742;2023-05-10T07:27:49;15.80;99.90
14349;DHT22;7258;50.376;8.742;2023-05-10T07:29:52;15.80;99.90
14349;DHT22;7258;50.376;8.742;2023-05-10T07:31:56;15.70;99.90
14349;DHT22;7258;50.376;8.742;2023-05-10T07:34:01;15.80;99.90
14349;DHT22;7258;50.376;8.742;2023-05-10T07:36:04;15.90;99.90
14349;DHT22;7258;50.376;8.742;2023-05-10T07:38:07;16.00;99.90
14349;DHT22;7258;50.376;8.742;2023-05-10T07:40:10;16.10;99.90
14349;DHT22;7258;50.376;8.742;2023-05-10T07:42:13;16.00;99.90
14349;DHT22;7258;50.376;8.742;2023-05-10T07:44:15;16.00;99.90
14349;DHT22;7258;50.376;8.742;2023-05-10T07:46:20;16.00;99.90
14349;DHT22;7258;50.376;8.742;2023-05-10T07:48:23;16.00;99.90
14349;DHT22;7258;50.376;8.742;2023-05-10T07:50:27;15.80;99.90
14349;DHT22;7258;50.376;8.742;2023-05-10T07:52:32;15.70;99.90
14349;DHT22;7258;50.376;8.742;2023-05-10T07:54:35;15.60;99.90
14349;DHT22;7258;50.376;8.742;2023-05-10T07:56:39;15.50;99.90
14349;DHT22;7258;50.376;8.742;2023-05-10T07:58:46;15.40;99.90
14349;DHT22;7258;50.376;8.742;2023-05-10T08:00:49;15.30;99.90
14349;DHT22;7258;50.376;8.742;2023-05-10T08:02:52;15.20;99.90
14349;DHT22;7258;50.376;8.742;2023-05-10T08:04:55;15.10;99.90
14349;DHT22;7258;50.376;8.742;2023-05-10T08:06:59;15.00;99.90
14349;DHT22;7258;50.376;8.742;2023-05-10T08:09:02;14.90;99.90
14349;DHT22;7258;50.376;8.742;2023-05-10T08:11:05;15.00;99.90
14349;DHT22;7258;50.376;8.742;2023-05-10T08:13:08;14.90;99.90
14349;DHT22;7258;50.376;8.742;2023-05-10T08:15:12;14.90;99.90
14349;DHT22;7258;50.376;8.742;2023-05-10T08:17:16;14.90;99.90
14349;DHT22;7258;50.376;8.742;2023-05-10T08:19:21;15.00;99.90
14349;DHT22;7258;50.376;8.742;2023-05-10T08:21:24;15.00;99.90
14349;DHT22;7258;50.376;8.742;2023-05-10T08:23:28;15.00;99.90
14349;DHT22;7258;50.376;8.742;2023-05-10T08:25:31;15.10;99.90
14349;DHT22;7258;50.376;8.742;2023-05-10T08:27:34;15.10;99.90
14349;DHT22;7258;50.376;8.742;2023-05-10T08:29:37;15.20;99.90
14349;DHT22;7258;50.376;8.742;2023-05-10T08:31:50;15.40;99.90
14349;DHT22;7258;50.376;8.742;2023-05-10T08:33:53;15.40;99.90
14349;DHT22;7258;50.376;8.742;2023-05-10T08:35:56;15.40;99.90
14349;DHT22;7258;50.376;8.742;2023-05-10T08:37:59;15.50;99.90
14349;DHT22;7258;50.376;8.742;2023-05-10T08:40:04;15.60;99.90
14349;DHT22;7258;50.376;8.742;2023-05-10T08:42:07;15.80;99.90
14349;DHT22;7258;50.376;8.742;2023-05-10T08:44:11;15.90;99.90
14349;DHT22;7258;50.376;8.742;2023-05-10T08:46:16;16.00;99.90
14349;DHT22;7258;50.376;8.742;2023-05-10T08:48:21;16.00;99.90
14349;DHT22;7258;50.376;8.742;2023-05-10T08:50:25;15.90;99.90
14349;DHT22;7258;50.376;8.742;2023-05-10T08:52:30;15.80;99.90
14349;DHT22;7258;50.376;8.742;2023-05-10T08:54:33;15.60;99.90
14349;DHT22;7258;50.376;8.742;2023-05-10T08:56:38;15.60;99.90
14349;DHT22;7258;50.376;8.742;2023-05-10T08:58:41;15.50;99.90
14349;DHT22;7258;50.376;8.742;2023-05-10T09:00:44;15.60;99.90
14349;DHT22;7258;50.376;8.742;2023-05-10T09:02:48;15.60;99.90
14349;DHT22;7258;50.376;8.742;2023-05-10T09:04:51;15.70;99.90
14349;DHT22;7258;50.376;8.742;2023-05-10T09:06:55;15.80;99.90
14349;DHT22;7258;50.376;8.742;2023-05-10T09:08:58;15.90;99.90
14349;DHT22;7258;50.376;8.742;2023-05-10T09:11:01;15.90;99.90
14349;DHT22;7258;50.376;8.742;2023-05-10T09:13:07;15.80;99.90
14349;DHT22;7258;50.376;8.742;2023-05-10T09:15:15;15.60;99.90
14349;DHT22;7258;50.376;8.742;2023-05-10T09:17:18;15.10;99.90
14349;DHT22;7258;50.376;8.742;2023-05-10T09:19:21;14.90;99.90
14349;DHT22;7258;50.376;8.742;2023-05-10T09:21:25;14.80;99.90
14349;DHT22;7258;50.376;8.742;2023-05-10T09:23:28;14.80;99.90
14349;DHT22;7258;50.376;8.742;2023-05-10T09:25:34;14.80;99.90
14349;DHT22;7258;50.376;8.742;2023-05-10T09:27:38;14.90;99.90
14349;DHT22;7258;50.376;8.742;2023-05-10T09:29:43;15.00;99.90
14349;DHT22;7258;50.376;8.742;2023-05-10T09:31:48;14.90;99.90
14349;DHT22;7258;50.376;8.742;2023-05-10T09:33:55;14.90;99.90
14349;DHT22;7258;50.376;8.742;2023-05-10T09:36:06;15.00;99.90
14349;DHT22;7258;50.376;8.742;2023-05-10T09:38:13;15.00;99.90
14349;DHT22;7258;50.376;8.742;2023-05-10T09:40:18;15.10;99.90
14349;DHT22;7258;50.376;8.742;2023-05-10T09:42:23;15.30;99.90
14349;DHT22;7258;50.376;8.742;2023-05-10T09:44:26;15.50;99.90
14349;DHT22;7258;50.376;8.742;2023-05-10T09:46:34;15.60;99.90
14349;DHT22;7258;50.376;8.742;2023-05-10T09:48:41;16.00;99.90
14349;DHT22;7258;50.376;8.742;2023-05-10T09:50:45;16.30;99.90
14349;DHT22;7258;50.376;8.742;2023-05-10T09:52:49;16.50;99.90
14349;DHT22;7258;50.376;8.742;2023-05-10T09:54:53;16.40;99.90
14349;DHT22;7258;50.376;8.742;2023-05-10T09:56:58;16.50;99.90
14349;DHT22;7258;50.376;8.742;2023-05-10T09:59:04;16.30;99.90
14349;DHT22;7258;50.376;8.742;2023-05-10T10:01:11;16.30;99.90
14349;DHT22;7258;50.376;8.742;2023-05-10T10:03:17;16.60;99.90
14349;DHT22;7258;50.376;8.742;2023-05-10T10:05:21;16.70;99.90
14349;DHT22;7258;50.376;8.742;2023-05-10T10:07:24;16.60;99.90
14349;DHT22;7258;50.376;8.742;2023-05-10T10:09:28;16.80;99.90
14349;DHT22;7258;50.376;8.742;2023-05-10T10:11:31;16.70;99.90
14349;DHT22;7258;50.376;8.742;2023-05-10T10:13:34;16.80;99.90
14349;DHT22;7258;50.376;8.742;2023-05-10T10:15:37;16.80;99.90
14349;DHT22;7258;50.376;8.742;2023-05-10T10:17:41;17.00;99.90
14349;DHT22;7258;50.376;8.742;2023-05-10T10:19:48;17.30;99.90
14349;DHT22;7258;50.376;8.742;2023-05-10T10:21:51;17.60;99.90
14349;DHT22;7258;50.376;8.742;2023-05-10T10:23:54;17.80;99.90
14349;DHT22;7258;50.376;8.742;2023-05-10T10:25:58;18.00;99.90
14349;DHT22;7258;50.376;8.742;2023-05-10T10:28:10;18.20;99.90
14349;DHT22;7258;50.376;8.742;2023-05-10T10:30:23;18.60;99.90
14349;DHT22;7258;50.376;8.742;2023-05-10T10:32:35;19.00;99.90
14349;DHT22;7258;50.376;8.742;2023-05-10T10:34:40;19.40;99.90
14349;DHT22;7258;50.376;8.742;2023-05-10T10:36:46;19.70;99.90
14349;DHT22;7258;50.376;8.742;2023-05-10T10:38:57;19.90;99.90
14349;DHT22;7258;50.376;8.742;2023-05-10T10:41:02;20.00;99.90
14349;DHT22;7258;50.376;8.742;2023-05-10T10:43:22;19.90;99.90
14349;DHT22;7258;50.376;8.742;2023-05-10T10:45:26;19.90;99.90
14349;DHT22;7258;50.376;8.742;2023-05-10T10:47:29;20.00;99.90
14349;DHT22;7258;50.376;8.742;2023-05-10T10:49:42;20.10;99.90
14349;DHT22;7258;50.376;8.742;2023-05-10T10:52:14;20.30;99.90
14349;DHT22;7258;50.376;8.742;2023-05-10T10:54:27;20.70;99.90
14349;DHT22;7258;50.376;8.742;2023-05-10T10:56:30;21.00;99.90
14349;DHT22;7258;50.376;8.742;2023-05-10T10:58:34;21.10;99.90
14349;DHT22;7258;50.376;8.742;2023-05-10T11:00:38;21.40;99.90
14349;DHT22;7258;50.376;8.742;2023-05-10T11:02:45;21.20;99.90
14349;DHT22;7258;50.376;8.742;2023-05-10T11:04:50;20.30;99.90
14349;DHT22;7258;50.376;8.742;2023-05-10T11:07:17;19.40;99.90
14349;DHT22;7258;50.376;8.742;2023-05-10T11:09:24;18.50;99.90
14349;DHT22;7258;50.376;8.742;2023-05-10T11:11:28;18.10;99.90
14349;DHT22;7258;50.376;8.742;2023-05-10T11:13:32;17.80;99.90
14349;DHT22;7258;50.376;8.742;2023-05-10T11:15:37;17.50;99.90
14349;DHT22;7258;50.376;8.742;2023-05-10T11:17:42;17.30;99.90
14349;DHT22;7258;50.376;8.742;2023-05-10T11:20:07;17.20;99.90
14349;DHT22;7258;50.376;8.742;2023-05-10T11:22:13;17.10;99.90
14349;DHT22;7258;50.376;8.742;2023-05-10T11:24:20;16.80;99.90
14349;DHT22;7258;50.376;8.742;2023-05-10T11:26:23;16.60;99.90
14349;DHT22;7258;50.376;8.742;2023-05-10T11:28:29;16.40;99.90
14349;DHT22;7258;50.376;8.742;2023-05-10T11:30:32;16.40;99.90
14349;DHT22;7258;50.376;8.742;2023-05-10T11:32:37;16.50;99.90
14349;DHT22;7258;50.376;8.742;2023-05-10T11:34:40;16.50;99.90
14349;DHT22;7258;50.376;8.742;2023-05-10T11:36:43;16.60;99.90
14349;DHT22;7258;50.376;8.742;2023-05-10T11:38:47;16.60;99.90
14349;DHT22;7258;50.376;8.742;2023-05-10T11:40:52;16.70;99.90
14349;DHT22;7258;50.376;8.742;2023-05-10T11:42:56;16.80;99.90
14349;DHT22;7258;50.376;8.742;2023-05-10T11:45:00;16.70;99.90
14349;DHT22;7258;50.376;8.742;2023-05-10T11:47:03;16.70;99.90
14349;DHT22;7258;50.376;8.742;2023-05-10T11:49:08;16.90;99.90
14349;DHT22;7258;50.376;8.742;2023-05-10T11:51:11;16.90;99.90
14349;DHT22;7258;50.376;8.742;2023-05-10T11:53:14;17.00;99.90
14349;DHT22;7258;50.376;8.742;2023-05-10T11:55:17;17.20;99.90
14349;DHT22;7258;50.376;8.742;2023-05-10T11:57:26;17.40;99.90
14349;DHT22;7258;50.376;8.742;2023-05-10T11:59:29;17.70;99.90
14349;DHT22;7258;50.376;8.742;2023-05-10T12:01:32;18.00;99.90
14349;DHT22;7258;50.376;8.742;2023-05-10T12:03:36;18.10;99.90
14349;DHT22;7258;50.376;8.742;2023-05-10T12:05:39;18.20;99.90
14349;DHT22;7258;50.376;8.742;2023-05-10T12:07:43;18.50;99.90
14349;DHT22;7258;50.376;8.742;2023-05-10T12:10:02;18.60;99.90
14349;DHT22;7258;50.376;8.742;2023-05-10T12:12:05;18.70;99.90
14349;DHT22;7258;50.376;8.742;2023-05-10T12:14:09;18.80;99.90
14349;DHT22;7258;50.376;8.742;2023-05-10T12:16:13;19.00;99.90
14349;DHT22;7258;50.376;8.742;2023-05-10T12:18:22;19.00;99.90
14349;DHT22;7258;50.376;8.742;2023-05-10T12:20:27;18.90;99.90
14349;DHT22;7258;50.376;8.742;2023-05-10T12:22:30;18.60;99.90
14349;DHT22;7258;50.376;8.742;2023-05-10T12:24:36;18.40;99.90
14349;DHT22;7258;50.376;8.742;2023-05-10T12:26:40;18.10;99.90
14349;DHT22;7258;50.376;8.742;2023-05-10T12:28:43;17.90;99.90
14349;DHT22;7258;50.376;8.742;2023-05-10T12:30:47;17.50;99.90
14349;DHT22;7258;50.376;8.742;2023-05-10T12:32:51;17.20;99.90
14349;DHT22;7258;50.376;8.742;2023-05-10T12:34:54;17.10;99.90
14349;DHT22;7258;50.376;8.742;2023-05-10T12:36:57;17.10;99.90
14349;DHT22;7258;50.376;8.742;2023-05-10T12:39:02;16.90;99.90
14349;DHT22;7258;50.376;8.742;2023-05-10T12:41:07;16.80;99.90
14349;DHT22;7258;50.376;8.742;2023-05-10T12:43:10;16.80;99.90
14349;DHT22;7258;50.376;8.742;2023-05-10T12:45:13;16.70;99.90
14349;DHT22;7258;50.376;8.742;2023-05-10T12:47:18;16.60;99.90
14349;DHT22;7258;50.376;8.742;2023-05-10T12:49:20;16.50;99.90
14349;DHT22;7258;50.376;8.742;2023-05-10T12:51:23;16.40;99.90
14349;DHT22;7258;50.376;8.742;2023-05-10T12:53:26;16.50;99.90
14349;DHT22;7258;50.376;8.742;2023-05-10T12:55:30;16.50;99.90
14349;DHT22;7258;50.376;8.742;2023-05-10T12:57:33;16.50;99.90
14349;DHT22;7258;50.376;8.742;2023-05-10T12:59:36;16.50;99.90
14349;DHT22;7258;50.376;8.742;2023-05-10T13:01:39;16.60;99.90
14349;DHT22;7258;50.376;8.742;2023-05-10T13:03:44;16.80;99.90
14349;DHT22;7258;50.376;8.742;2023-05-10T13:05:47;16.90;99.90
14349;DHT22;7258;50.376;8.742;2023-05-10T13:07:50;17.00;99.90
14349;DHT22;7258;50.376;8.742;2023-05-10T13:09:53;17.20;99.90
14349;DHT22;7258;50.376;8.742;2023-05-10T13:11:56;17.40;99.90
14349;DHT22;7258;50.376;8.742;2023-05-10T13:13:59;17.70;99.90
14349;DHT22;7258;50.376;8.742;2023-05-10T13:16:02;17.80;99.90
14349;DHT22;7258;50.376;8.742;2023-05-10T13:18:05;18.00;99.90
14349;DHT22;7258;50.376;8.742;2023-05-10T13:20:10;18.20;99.90
14349;DHT22;7258;50.376;8.742;2023-05-10T13:22:13;18.50;99.90
14349;DHT22;7258;50.376;8.742;2023-05-10T13:24:29;18.70;99.90
14349;DHT22;7258;50.376;8.742;2023-05-10T13:26:32;18.80;99.90